Flight Track Log - Related Links

Times and Time Zones

All times are in EDT time to prevent confusion due to time zone crossing. See the XOJ793 flight status page for this flight to view local times or setup timezone preferences in your user account.

Time Position Orientation Groundspeed Altitude Reporting Facility
EDT Latitude Longitude Course Direction KTS MPH feet Rate Location/Type
Tue 01:16:25 PM 32.8333 -96.8333 121° Southeast 193 222 1,400  Level Dallas / Fort Worth TRACON
Tue 01:16:55 PM 32.8167 -96.8000 121° Southeast 234 269 2,600 2,548 Climbing Dallas / Fort Worth TRACON
Tue 01:17:38 PM 32.7725 -96.7619 144° Southeast 278 320 4,500 3,943 Climbing Fort Worth Center
Tue 01:18:40 PM 32.7206 -96.6817 128° Southeast 295 339 9,500 4,065 Climbing Fort Worth Center
Tue 01:19:42 PM 32.7589 -96.5806 66° East 344 396 12,900 2,565 Climbing Fort Worth Center
Tue 01:20:44 PM 32.8058 -96.4675 64° Northeast 356 410 14,800 1,742 Climbing Fort Worth Center
Tue 01:21:46 PM 32.8547 -96.3578 62° Northeast 375 432 16,500 1,500 Climbing Fort Worth Center
Tue 01:22:48 PM 32.8689 -96.2239 83° East 384 442 17,900 1,161 Climbing Fort Worth Center
Tue 01:23:50 PM 32.8703 -96.0897 89° East 406 467 18,900 1,210 Climbing Fort Worth Center
Tue 01:24:52 PM 32.8731 -95.9408 89° East 416 479 20,400 1,440 Climbing Fort Worth Center
Tue 01:25:55 PM 32.8753 -95.8008 89° East 423 487 21,900 1,584 Climbing Fort Worth Center
Tue 01:26:57 PM 32.8778 -95.6506 89° East 425 489 23,700 1,742 Climbing Fort Worth Center
Tue 01:27:59 PM 32.8783 -95.5089 90° East 426 490 25,500 1,742 Climbing Fort Worth Center
Tue 01:29:01 PM 32.8817 -95.3658 88° East 431 496 27,300 1,742 Climbing Fort Worth Center
Tue 01:30:03 PM 32.8978 -95.2322 82° East 434 499 29,100 1,887 Climbing Fort Worth Center
Tue 01:31:05 PM 32.9194 -95.0611 81° East 434 499 31,200 1,694 Climbing Fort Worth Center
Tue 01:32:07 PM 32.9389 -94.9158 81° East 440 506 32,600 1,210 Climbing Fort Worth Center
Tue 01:33:09 PM 32.9575 -94.7661 82° East 455 524 33,700 1,008 Climbing Fort Worth Center
Tue 01:34:12 PM 32.9753 -94.6114 82° East 473 544 34,700 1,008 Climbing Fort Worth Center
Tue 01:35:14 PM 32.9936 -94.4536 82° East 483 556 35,800 1,161 Climbing Fort Worth Center
Tue 01:36:16 PM 33.0156 -94.2628 82° East 488 562 37,100 1,161 Climbing Fort Worth Center
Tue 01:37:18 PM 33.0347 -94.1017 82° East 493 567 38,200 1,065 Climbing Fort Worth Center
Tue 01:38:20 PM 33.0536 -93.9394 82° East 497 572 39,300 1,065 Climbing Fort Worth Center
Tue 01:39:22 PM 33.0725 -93.7794 82° East 496 571 40,400 823 Climbing Fort Worth Center
Tue 01:40:24 PM 33.0906 -93.6203 82° East 493 567 41,000 774 Climbing Fort Worth Center
Tue 01:41:26 PM 33.0844 -93.4292 92° East 489 563 42,000 871 Climbing Fort Worth Center
Tue 01:42:28 PM 33.0675 -93.2750 97° East 476 548 42,800 624 Climbing Fort Worth Center
Tue 01:43:31 PM 33.0647 -93.1192 91° East 476 548 43,300 480 Climbing Fort Worth Center
Tue 01:44:33 PM 33.0878 -92.9608 80° East 491 565 43,800 435 Climbing Fort Worth Center
Tue 01:45:35 PM 33.1056 -92.8036 82° East 483 556 44,200 387 Climbing Fort Worth Center
Tue 01:46:37 PM 33.1281 -92.6172 82° East 480 552 44,600 387 Climbing Fort Worth Center
Tue 01:47:39 PM 33.1469 -92.4600 82° East 479 551 45,000 194 Climbing Fort Worth Center
Tue 01:48:41 PM 33.1647 -92.3039 82° East 478 550 45,000  Level Fort Worth Center
Tue 01:49:43 PM 33.1833 -92.1469 82° East 479 551 45,000  Level Fort Worth Center
Tue 01:50:45 PM 33.2008 -91.9914 82° East 478 550 45,000  Level Fort Worth Center
Tue 01:51:47 PM 33.2217 -91.8064 82° East 474 545 45,000 144 Level Fort Worth Center
Tue 01:52:50 PM 33.2381 -91.6533 83° East 470 541 45,300 192 Climbing Fort Worth Center
Tue 01:53:52 PM 33.2544 -91.5019 83° East 465 535 45,400 194 Climbing Fort Worth Center
Tue 01:54:54 PM 33.2733 -91.3333 82° East 463 533 45,700 194 Climbing Fort Worth Center
Tue 01:55:56 PM 33.2889 -91.1811 83° East 463 533 45,800 97 Climbing Fort Worth Center
Tue 01:56:58 PM 33.3050 -91.0292 83° East 462 532 45,900 145 Climbing Fort Worth Center
Tue 01:58:00 PM 33.3211 -90.8775 83° East 461 531 46,100 145 Climbing Fort Worth Center
Tue 01:59:02 PM 33.3372 -90.7272 83° East 460 529 46,200 145 Climbing Fort Worth Center
Tue 02:00:04 PM 33.3511 -90.5750 84° East 460 529 46,400 179 Climbing Fort Worth Center
Tue 02:01:16 PM 33.3722 -90.3772 83° East 459 528 46,600 134 Climbing Memphis Center
Tue 02:02:18 PM 33.3869 -90.2275 83° East 458 527 46,700 145 Climbing Memphis Center
Tue 02:03:20 PM 33.4025 -90.0772 83° East 458 527 46,900 145 Climbing Memphis Center
Tue 02:04:22 PM 33.4169 -89.9261 83° East 458 527 47,000 48 Climbing Memphis Center
Tue 02:05:24 PM 33.4317 -89.7750 83° East 457 526 47,000  Level Memphis Center
Tue 02:06:26 PM 33.4456 -89.6244 84° East 457 526 47,000  Level Memphis Center
Tue 02:07:28 PM 33.4622 -89.4419 84° East 458 527 47,000  Level Memphis Center
Tue 02:08:30 PM 33.4761 -89.2911 84° East 457 526 47,000  Level Memphis Center
Tue 02:09:32 PM 33.4892 -89.1389 84° East 458 527 47,000  Level Memphis Center
Tue 02:10:34 PM 33.5036 -88.9858 84° East 460 529 47,000  Level Memphis Center
Tue 02:11:36 PM 33.5169 -88.8339 84° East 460 529 47,000  Level Memphis Center
Tue 02:12:38 PM 33.5331 -88.6500 84° East 461 531 47,000  Level Memphis Center
Tue 02:13:40 PM 33.5456 -88.4931 84° East 463 533 47,000  Level Memphis Center
Tue 02:14:42 PM 33.5594 -88.3383 84° East 465 535 47,000  Level Memphis Center
Tue 02:15:44 PM 33.5722 -88.1850 84° East 465 535 47,000  Level Memphis Center
Tue 02:16:46 PM 33.5842 -88.0294 85° East 466 536 47,000  Level Memphis Center
Tue 02:17:48 PM 33.5969 -87.8761 84° East 466 536 47,000  Level Memphis Center
Tue 02:18:50 PM 33.6083 -87.7206 85° East 466 536 47,000  Level Memphis Center
Tue 02:19:52 PM 33.6225 -87.5358 85° East 466 536 47,000  Level Memphis Center
Tue 02:20:54 PM 33.6333 -87.3822 85° East 466 536 47,000  Level Memphis Center
Tue 02:21:56 PM 33.6467 -87.2269 84° East 466 536 47,000  Level Memphis Center
Tue 02:22:58 PM 33.6597 -87.0747 84° East 466 536 47,000  Level Memphis Center
Tue 02:24:00 PM 33.7106 -86.9303 67° East 472 543 47,000  Level Memphis Center
Tue 02:25:02 PM 33.7750 -86.7583 66° East 472 543 47,000  Level Memphis Center
Tue 02:26:04 PM 33.8283 -86.6167 66° East 471 542 47,000  Level Memphis Center
Tue 02:27:06 PM 33.8806 -86.4739 66° East 470 541 47,000  Level Memphis Center
Tue 02:28:09 PM 33.9344 -86.3297 66° East 470 541 47,000  Level Memphis Center
Tue 02:29:17 PM 33.9994 -86.1486 67° East 471 542 47,000  Level Atlanta Center
Tue 02:30:17 PM 34.0519 -86.0019 67° East 471 542 47,000  Level Atlanta Center
Tue 02:31:17 PM 34.1064 -85.8578 65° Northeast 471 542 47,000  Level Atlanta Center
Tue 02:32:17 PM 34.1564 -85.7106 68° East 471 542 47,000  Level Atlanta Center
Tue 02:33:17 PM 34.2106 -85.5636 66° East 471 542 47,000  Level Atlanta Center
Tue 02:34:17 PM 34.2625 -85.4186 67° East 471 542 47,000  Level Atlanta Center
Tue 02:35:17 PM 34.3142 -85.2736 67° East 471 542 47,000  Level Atlanta Center
Tue 02:36:17 PM 34.3675 -85.1258 66° East 471 542 47,000  Level Atlanta Center
Tue 02:37:17 PM 34.4211 -84.9806 66° East 471 542 47,000  Level Atlanta Center
Tue 02:38:17 PM 34.4700 -84.8300 68° East 471 542 47,000  Level Atlanta Center
Tue 02:39:17 PM 34.5231 -84.6817 66° East 471 542 47,000  Level Atlanta Center
Tue 02:40:17 PM 34.5739 -84.5333 67° East 471 542 47,000  Level Atlanta Center
Tue 02:41:17 PM 34.6264 -84.3819 67° East 471 542 47,000  Level Atlanta Center
Tue 02:42:17 PM 34.6769 -84.2358 67° East 471 542 47,000  Level Atlanta Center
Tue 02:43:17 PM 34.7292 -84.0842 67° East 471 542 47,000  Level Atlanta Center
Tue 02:44:17 PM 34.7792 -83.9350 68° East 471 542 47,000  Level Atlanta Center
Tue 02:45:17 PM 34.8333 -83.7806 67° East 477 549 47,000  Level Atlanta Center
Tue 02:46:17 PM 34.8850 -83.6311 67° East 477 549 47,000  Level Atlanta Center
Tue 02:47:17 PM 34.9347 -83.4864 67° East 472 543 47,000  Level Atlanta Center
Tue 02:48:17 PM 34.9858 -83.3314 68° East 472 543 47,000  Level Atlanta Center
Tue 02:49:17 PM 35.0372 -83.1789 68° East 472 543 47,000  Level Atlanta Center
Tue 02:50:17 PM 35.0881 -83.0261 68° East 477 549 47,000  Level Atlanta Center
Tue 02:51:17 PM 35.1389 -82.8731 68° East 477 549 47,000  Level Atlanta Center
Tue 02:52:17 PM 35.1894 -82.7172 68° East 477 549 47,000  Level Atlanta Center
Tue 02:53:17 PM 35.2400 -82.5639 68° East 477 549 47,000  Level Atlanta Center
Tue 02:54:17 PM 35.2881 -82.4078 69° East 477 549 47,000  Level Atlanta Center
Tue 02:55:17 PM 35.3403 -82.2539 67° East 477 549 47,000  Level Atlanta Center
Tue 02:56:17 PM 35.3900 -82.1000 68° East 477 549 47,000  Level Atlanta Center
Tue 02:57:17 PM 35.4397 -81.9433 69° East 477 549 47,000  Level Atlanta Center
Tue 02:58:17 PM 35.4889 -81.7892 69° East 477 549 47,000  Level Atlanta Center
Tue 02:59:17 PM 35.5383 -81.6347 68° East 477 549 47,000  Level Atlanta Center
Tue 03:00:17 PM 35.5872 -81.4800 69° East 477 549 47,000  Level Atlanta Center
Tue 03:01:17 PM 35.6286 -81.3586 67° East 477 549 47,000  Level Atlanta Center
Tue 03:02:17 PM 35.6867 -81.1597 70° East 489 563 47,000  Level Atlanta Center
Tue 03:03:17 PM 35.7331 -81.0097 69° East 503 579 47,000  Level Atlanta Center
Tue 03:04:17 PM 35.7792 -80.8569 70° East 497 572 47,000  Level Atlanta Center
Tue 03:05:17 PM 35.8253 -80.7017 70° East 486 559 47,000  Level Atlanta Center
Tue 03:07:25 PM 35.9297 -80.3556 69° East 482 555 47,000  Level Washington Center
Tue 03:08:25 PM 35.9797 -80.1969 69° East 482 555 47,000  Level Washington Center
Tue 03:09:25 PM 36.0183 -80.0631 70° East 476 548 47,000  Level Washington Center
Tue 03:10:26 PM 36.0800 -79.9147 63° Northeast 478 550 47,000  Level Washington Center
Tue 03:11:24 PM 36.1689 -79.7603 54° Northeast 482 555 47,000  Level Washington Center
Tue 03:12:24 PM 36.2400 -79.6353 55° Northeast 495 570 47,000  Level Washington Center
Tue 03:13:25 PM 36.3244 -79.4850 55° Northeast 490 564 47,000  Level Washington Center
Tue 03:14:25 PM 36.3997 -79.3467 56° Northeast 490 564 47,000  Level Washington Center
Tue 03:15:26 PM 36.4769 -79.2083 55° Northeast 490 564 47,000  Level Washington Center
Tue 03:16:26 PM 36.5494 -79.0875 53° Northeast 485 558 47,000  Level Washington Center
Tue 03:17:24 PM 36.6264 -78.9514 55° Northeast 480 552 47,000  Level Washington Center
Tue 03:18:25 PM 36.7100 -78.7892 57° Northeast 491 565 47,000  Level Washington Center
Tue 03:19:26 PM 36.7889 -78.6497 55° Northeast 496 571 47,000  Level Washington Center
Tue 03:20:24 PM 36.8653 -78.5100 56° Northeast 496 571 47,000  Level Washington Center
Tue 03:21:25 PM 36.9375 -78.3697 57° Northeast 485 558 47,000  Level Washington Center
Tue 03:22:26 PM 37.0222 -78.2272 53° Northeast 490 564 47,000  Level Washington Center
Tue 03:23:26 PM 37.1197 -78.1472 33° Northeast 485 558 47,000  Level Washington Center
Tue 03:24:24 PM 37.2364 -78.0544 32° Northeast 473 544 47,000  Level Washington Center
Tue 03:25:25 PM 37.3431 -77.9456 39° Northeast 479 551 47,000  Level Washington Center
Tue 03:26:26 PM 37.4472 -77.8336 40° Northeast 484 557 47,000  Level Washington Center
Tue 03:27:24 PM 37.5517 -77.7214 40° Northeast 484 557 47,000 -153 Level Washington Center
Tue 03:28:24 PM 37.6536 -77.6089 41° Northeast 490 564 46,700 -645 Descending Washington Center
Tue 03:29:25 PM 37.7578 -77.4961 41° Northeast 490 564 45,700 -1,190 Descending Washington Center
Tue 03:30:25 PM 37.8594 -77.3831 41° Northeast 490 564 44,300 -1,918 Descending Washington Center
Tue 03:31:27 PM 37.9656 -77.2669 41° Northeast 495 570 41,800 -2,471 Descending Washington Center
Tue 03:32:24 PM 38.0733 -77.1481 41° Northeast 495 570 39,400 -2,492 Descending Washington Center
Tue 03:33:25 PM 38.1814 -77.0286 41° Northeast 501 577 36,900 -2,479 Descending Washington Center
Tue 03:34:25 PM 38.2889 -76.9092 41° Northeast 507 583 34,400 -2,521 Descending Washington Center
Tue 03:35:24 PM 38.4008 -76.7972 38° Northeast 507 583 31,900 -2,420 Descending Washington Center
Tue 03:36:24 PM 38.5144 -76.6769 40° Northeast 512 589 29,600 -2,182 Descending Washington Center
Tue 03:37:25 PM 38.6281 -76.5564 40° Northeast 517 595 27,500 -2,164 Descending Washington Center
Tue 03:38:26 PM 38.7436 -76.4461 37° Northeast 523 602 25,200 -1,815 Descending Washington Center
Tue 03:39:24 PM 38.8733 -76.3756 23° Northeast 509 586 23,900 -610 Descending Washington Center
Tue 03:40:24 PM 39.0008 -76.3128 21° North 488 562 24,000 49 Climbing Washington Center
Tue 03:41:26 PM 39.1222 -76.2472 23° Northeast 478 550 24,000 -50 Level Washington Center
Tue 03:42:24 PM 39.2414 -76.1303 37° Northeast 472 543 23,900 -203 Descending Washington Center
Tue 03:43:24 PM 39.3461 -76.0236 38° Northeast 472 543 23,600 -1,979 Descending Washington Center
Tue 03:45:38 PM 39.5833 -75.8000 36° Northeast 457 526 17,500 -2,621 Descending Philadelphia TRACON
Tue 03:46:50 PM 39.7000 -75.6833 38° Northeast 438 504 14,600 -2,190 Descending Philadelphia TRACON
Tue 03:47:44 PM 39.7833 -75.6000 38° Northeast 409 471 12,900 -895 Descending Philadelphia TRACON
Tue 03:48:44 PM 39.8833 -75.5167 33° Northeast 422 486 12,900  Level Philadelphia TRACON
Tue 03:49:50 PM 39.9833 -75.4167 37° Northeast 403 464 12,900  Level Philadelphia TRACON
Tue 03:50:50 PM 40.0667 -75.3500 31° Northeast 340 391 12,900 50 Level Philadelphia TRACON
Tue 03:51:50 PM 40.1500 -75.2833 31° Northeast 318 366 13,000 -905 Climbing Philadelphia TRACON
Tue 03:52:56 PM 40.2167 -75.2000 44° Northeast 311 358 11,000 -1,333 Descending Philadelphia TRACON
Tue 03:53:56 PM 40.2833 -75.1333 37° Northeast 316 364 10,200 -1,481 Descending Philadelphia TRACON
Tue 03:55:30 PM 40.3833 -75.0167 42° Northeast 304 350 7,200 -1,275 Descending New York TRACON
Tue 03:56:36 PM 40.4500 -74.9333 44° Northeast 297 342 6,800 -905 Descending New York TRACON
Tue 03:57:36 PM 40.5167 -74.8500 44° Northeast 301 346 5,300 -1,400 Descending New York TRACON
Tue 03:58:36 PM 40.5667 -74.7667 52° Northeast 295 339 4,000 -645 Descending New York TRACON
Tue 03:59:37 PM 40.6333 -74.7000 37° Northeast 290 334 4,000 50 Level New York TRACON
Tue 04:00:37 PM 40.7000 -74.6667 21° North 284 327 4,100 50 Climbing New York TRACON
Tue 04:01:36 PM 40.7833 -74.6333 17° North 292 336 4,100 -50 Level New York TRACON
Tue 04:02:37 PM 40.8500 -74.6000 21° North 290 334 4,000 -50 Descending New York TRACON
Tue 04:03:36 PM 40.9167 -74.5667 21° North 232 267 4,000  Level New York TRACON
Tue 04:04:42 PM 40.9833 -74.5333 21° North 216 249 4,000  Level New York TRACON
Tue 04:05:36 PM 41.0333 -74.5167 14° North 213 245 4,000  Level New York TRACON
Tue 04:06:37 PM 41.0833 -74.4833 27° Northeast 215 247 4,000 -99 Level New York TRACON
Tue 04:07:37 PM 41.1167 -74.4167 56° Northeast 218 251 3,800 -480 Descending New York TRACON
Tue 04:08:42 PM 41.1333 -74.3333 75° East 214 246 3,000 -400 Descending New York TRACON
Tue 04:09:37 PM 41.1167 -74.2833 114° Southeast 185 213 3,000  Level New York TRACON
Tue 04:10:37 PM 41.1000 -74.2000 105° East 204 235 3,000  Level New York TRACON
Tue 04:11:37 PM 41.0667 -74.1333 124° Southeast 199 229 3,000 -450 Level New York TRACON
Tue 04:12:37 PM 41.0500 -74.0833 114° Southeast 201 231 2,100 -500 Descending New York TRACON
Tue 04:13:37 PM 41.0000 -74.0500 153° Southeast 166 191 2,000  Descending New York TRACON
Tue 04:14:37 PM 40.9667 -74.0500 180° South 155 178 2,100 -250 Climbing New York TRACON
Tue 04:15:37 PM 40.9333 -74.0500 180° South 127 146 1,500 -650 Descending New York TRACON
Tue 04:16:37 PM 40.8833 -74.0500 180° South 126 145 800 -700 Descending New York TRACON

Login

Don't have an account? Register now (free) for customized features, flight alerts, and more!